Time;durP1;ratioP1;P1;durP2;ratioP2;P2;SDS_P1;SDS_P2;PMS_P1;PMS_P2;Temp;Humidity;BMP_temperature;BMP_pressure;BME280_temperature;BME280_humidity;BME280_pressure;Samples;Min_cycle;Max_cycle;Signal;HPM_P1;HPM_P2
2023/07/12 00:00:48;;;;;;;2.85;2.25;;;;;;;18.64;97.80;100885.41;6162591;23;20025;-77
2023/07/12 00:03:17;;;;;;;5.43;2.40;;;;;;;18.58;97.38;100887.34;6164024;23;20049;-77
2023/07/12 00:05:44;;;;;;;2.85;2.25;;;;;;;18.55;97.27;100878.28;6163061;23;20035;-77
2023/07/12 00:08:26;;;;;;;3.55;2.20;;;;;;;18.55;96.48;100885.63;6138804;23;20021;-77
2023/07/12 00:10:54;;;;;;;2.90;2.03;;;;;;;18.52;96.44;100883.91;6189870;23;20049;-78
2023/07/12 00:13:23;;;;;;;2.58;2.30;;;;;;;18.48;95.98;100894.22;6188629;23;20053;-78
2023/07/12 00:15:52;;;;;;;2.15;2.05;;;;;;;18.43;95.71;100897.63;6189552;23;20065;-78
2023/07/12 00:18:24;;;;;;;2.20;1.98;;;;;;;18.37;95.83;100886.13;6163097;23;20049;-78
2023/07/12 00:20:52;;;;;;;3.63;1.92;;;;;;;18.34;96.49;100874.38;6189663;23;20822;-78
2023/07/12 00:23:19;;;;;;;2.30;2.10;;;;;;;18.32;95.82;100882.94;6138538;23;20518;-77
2023/07/12 00:25:48;;;;;;;4.13;2.20;;;;;;;18.28;96.13;100874.38;6189603;23;20013;-78
2023/07/12 00:28:26;;;;;;;3.30;2.00;;;;;;;18.21;95.42;100877.53;6157454;23;20547;-78
2023/07/12 00:30:55;;;;;;;3.08;2.30;;;;;;;18.15;95.15;100867.97;6158500;23;20475;-77
2023/07/12 00:33:23;;;;;;;2.63;2.15;;;;;;;18.07;95.75;100883.16;6157820;23;20452;-78
2023/07/12 00:35:50;;;;;;;2.35;2.10;;;;;;;18.04;95.10;100892.22;6159777;23;20022;-77
2023/07/12 00:38:23;;;;;;;4.03;2.67;;;;;;;18.02;95.22;100890.00;6158505;23;20014;-77
2023/07/12 00:41:00;;;;;;;5.07;2.10;;;;;;;18.01;95.39;100891.22;6158365;23;20073;-78
2023/07/12 00:43:35;;;;;;;2.72;2.08;;;;;;;17.97;94.72;100886.09;6159274;23;20096;-77
2023/07/12 00:46:11;;;;;;;3.80;2.00;;;;;;;17.93;94.91;100887.56;6158389;23;20025;-78
2023/07/12 00:48:37;;;;;;;5.13;1.85;;;;;;;17.87;94.90;100897.56;6157703;23;20022;-77
2023/07/12 00:51:44;;;;;;;3.40;1.90;;;;;;;17.81;94.44;100892.16;6158289;23;20022;-77
2023/07/12 00:54:14;;;;;;;5.80;2.10;;;;;;;17.79;94.54;100894.59;6133652;23;20026;-78
2023/07/12 00:56:41;;;;;;;3.80;2.22;;;;;;;17.81;94.51;100886.78;6156985;23;20018;-77
2023/07/12 00:59:21;;;;;;;4.25;1.83;;;;;;;17.77;93.94;100880.91;6160027;23;20081;-78
2023/07/12 01:01:50;;;;;;;5.00;2.03;;;;;;;17.71;93.83;100890.91;6157856;23;20549;-77
2023/07/12 01:04:25;;;;;;;5.47;2.08;;;;;;;17.73;94.79;100893.13;6158218;23;20089;-78
2023/07/12 01:06:52;;;;;;;4.63;2.03;;;;;;;17.74;94.54;100884.56;6157903;23;20034;-77
2023/07/12 01:09:19;;;;;;;4.13;1.88;;;;;;;17.76;94.17;100882.13;6159641;23;20444;-77
2023/07/12 01:11:46;;;;;;;5.47;1.90;;;;;;;17.77;94.06;100880.16;6157075;23;20463;-77
2023/07/12 01:14:15;;;;;;;4.13;1.60;;;;;;;17.74;93.84;100930.31;6158013;23;20077;-77
2023/07/12 01:16:45;;;;;;;5.93;2.05;;;;;;;17.71;94.24;100966.28;6159163;23;20451;-78
2023/07/12 01:19:12;;;;;;;5.07;1.65;;;;;;;17.66;94.87;101000.03;6158232;23;20022;-77
2023/07/12 01:21:53;;;;;;;4.43;2.28;;;;;;;17.62;95.45;101009.53;6157590;23;20404;-76
2023/07/12 01:24:21;;;;;;;3.35;1.83;;;;;;;17.60;96.71;100985.78;6157309;23;20767;-77
2023/07/12 01:26:51;;;;;;;6.78;2.33;;;;;;;17.57;97.21;100956.44;6164207;23;20403;-77
2023/07/12 01:29:17;;;;;;;3.80;1.88;;;;;;;17.50;97.29;100951.50;6189695;23;20048;-77
2023/07/12 01:31:45;;;;;;;3.58;2.17;;;;;;;17.47;97.36;100958.56;6189575;23;20099;-77
2023/07/12 01:34:12;;;;;;;2.67;2.05;;;;;;;17.46;97.94;100965.19;6163240;23;20017;-76
2023/07/12 01:36:39;;;;;;;4.10;2.00;;;;;;;17.43;98.57;100962.72;6162316;23;20029;-76
2023/07/12 01:39:06;;;;;;;9.13;2.40;;;;;;;17.38;98.40;100944.56;6189919;23;20405;-76
2023/07/12 01:41:33;;;;;;;8.63;2.67;;;;;;;17.33;99.08;100936.00;6188883;23;20893;-77
2023/07/12 01:44:00;;;;;;;5.53;2.33;;;;;;;17.30;99.29;100918.13;6162549;23;20028;-76
2023/07/12 01:46:29;;;;;;;5.13;2.67;;;;;;;17.30;100.00;100914.69;6188957;23;20411;-76
2023/07/12 01:48:56;;;;;;;6.55;2.63;;;;;;;17.28;100.00;100885.56;6189165;23;20057;-76
2023/07/12 01:51:25;;;;;;;4.93;2.30;;;;;;;17.28;100.00;100871.38;6162057;23;20021;-76
2023/07/12 01:53:51;;;;;;;4.82;2.47;;;;;;;17.24;100.00;100881.63;6188540;23;20018;-76
2023/07/12 01:56:18;;;;;;;9.15;2.50;;;;;;;17.24;100.00;100893.13;6189255;23;20076;-76
2023/07/12 01:58:45;;;;;;;8.48;2.33;;;;;;;17.29;100.00;100905.16;6162151;23;20018;-76
2023/07/12 02:01:12;;;;;;;5.43;2.60;;;;;;;17.28;100.00;100909.06;6162328;23;20030;-76
2023/07/12 02:03:39;;;;;;;3.63;2.15;;;;;;;17.29;100.00;100891.69;6188497;23;20014;-75
2023/07/12 02:06:06;;;;;;;7.32;2.70;;;;;;;17.25;100.00;100872.34;6189242;23;20013;-75
2023/07/12 02:08:32;;;;;;;5.85;2.25;;;;;;;17.24;100.00;100870.88;6137069;23;20021;-75
2023/07/12 02:10:59;;;;;;;4.80;2.72;;;;;;;17.18;100.00;100872.81;6161954;23;20021;-76
2023/07/12 02:13:26;;;;;;;5.68;2.60;;;;;;;17.16;100.00;100859.13;6162228;23;20473;-76
2023/07/12 02:15:52;;;;;;;3.83;2.70;;;;;;;17.12;100.00;100826.34;6162036;23;20482;-76
2023/07/12 02:18:20;;;;;;;3.92;2.72;;;;;;;17.06;100.00;100845.13;6162132;23;20056;-78
2023/07/12 02:20:47;;;;;;;4.82;2.78;;;;;;;17.04;100.00;100854.91;6188684;23;20562;-76
2023/07/12 02:23:13;;;;;;;10.63;3.00;;;;;;;17.04;100.00;100854.91;6161935;23;20122;-76
2023/07/12 02:25:41;;;;;;;10.38;2.97;;;;;;;16.99;100.00;100799.88;6161694;23;20048;-76
2023/07/12 02:28:07;;;;;;;6.80;2.90;;;;;;;16.96;100.00;100841.16;6157570;23;20471;-76
2023/07/12 02:30:34;;;;;;;7.60;2.63;;;;;;;16.91;100.00;100858.72;6158877;23;20022;-76
2023/07/12 02:33:01;;;;;;;5.95;2.67;;;;;;;16.88;100.00;100862.38;6158506;23;20021;-76
2023/07/12 02:35:29;;;;;;;7.10;2.60;;;;;;;16.86;100.00;100866.75;6156558;23;20085;-76
2023/07/12 02:37:58;;;;;;;8.05;2.30;;;;;;;16.88;100.00;100854.31;6157962;23;20018;-76
2023/07/12 02:40:25;;;;;;;10.15;3.03;;;;;;;16.89;100.00;100852.34;6132370;23;20113;-76
2023/07/12 02:42:53;;;;;;;7.47;2.72;;;;;;;16.87;100.00;100865.53;6159241;23;20388;-78
2023/07/12 02:45:20;;;;;;;6.65;2.80;;;;;;;16.84;100.00;100874.56;6158886;23;20385;-76
2023/07/12 02:47:47;;;;;;;6.15;2.38;;;;;;;16.82;100.00;100866.97;6158636;23;20440;-76
2023/07/12 02:50:14;;;;;;;6.45;2.50;;;;;;;16.82;100.00;100858.19;6159281;23;20329;-76
2023/07/12 02:52:40;;;;;;;6.00;2.40;;;;;;;16.77;100.00;100856.94;6157323;23;20014;-76
2023/07/12 02:55:07;;;;;;;7.25;2.50;;;;;;;16.77;100.00;100856.22;6158701;23;20428;-76
2023/07/12 02:57:34;;;;;;;7.45;2.55;;;;;;;16.78;100.00;100863.06;6158534;23;20018;-78
2023/07/12 03:00:01;;;;;;;10.02;2.63;;;;;;;16.75;100.00;100870.13;6158237;23;20026;-76
2023/07/12 03:02:30;;;;;;;10.80;3.00;;;;;;;16.71;100.00;100888.44;6156507;23;20415;-76
2023/07/12 03:04:57;;;;;;;9.48;2.80;;;;;;;16.70;100.00;100894.28;6158564;23;20014;-75
2023/07/12 03:07:23;;;;;;;8.15;2.85;;;;;;;16.63;100.00;100896.16;6157710;23;20049;-76
2023/07/12 03:09:56;;;;;;;6.03;2.75;;;;;;;16.59;100.00;100900.28;6157192;23;20042;-77
2023/07/12 03:12:23;;;;;;;6.22;2.90;;;;;;;16.53;100.00;100902.91;6157093;23;20381;-77
2023/07/12 03:14:51;;;;;;;6.95;2.78;;;;;;;16.52;100.00;100901.44;6158322;23;20014;-77
2023/07/12 03:17:17;;;;;;;6.47;2.78;;;;;;;16.50;100.00;100889.69;6158712;23;20440;-76
2023/07/12 03:19:44;;;;;;;4.97;2.60;;;;;;;16.48;100.00;100886.75;6156762;23;20026;-77
2023/07/12 03:22:11;;;;;;;8.95;3.03;;;;;;;16.45;100.00;100887.69;6158474;23;20018;-77
2023/07/12 03:24:37;;;;;;;7.00;3.08;;;;;;;16.40;100.00;100883.75;6156946;23;20070;-77
2023/07/12 03:27:04;;;;;;;6.10;3.22;;;;;;;16.40;100.00;100883.00;6166925;23;20066;-78
2023/07/12 03:29:31;;;;;;;5.60;3.63;;;;;;;16.39;100.00;100890.34;6188186;23;20057;-77
2023/07/12 03:31:58;;;;;;;6.25;3.42;;;;;;;16.40;100.00;100894.50;6161527;23;20120;-77
2023/07/12 03:34:24;;;;;;;9.52;4.53;;;;;;;16.40;100.00;100905.22;6188145;23;20014;-76
2023/07/12 03:36:51;;;;;;;9.52;4.55;;;;;;;16.39;100.00;100903.06;6160905;23;20108;-77
2023/07/12 03:39:18;;;;;;;7.28;4.00;;;;;;;16.37;100.00;100903.53;6161741;23;20098;-77
2023/07/12 03:41:44;;;;;;;7.60;4.72;;;;;;;16.40;100.00;100904.50;6188085;23;20412;-77
2023/07/12 03:44:11;;;;;;;14.00;5.22;;;;;;;16.39;100.00;100903.06;6161830;23;20064;-77
2023/07/12 03:46:38;;;;;;;8.98;5.43;;;;;;;16.41;100.00;100911.34;6187734;23;20360;-77
2023/07/12 03:49:04;;;;;;;7.25;5.07;;;;;;;16.40;100.00;100910.59;6189667;23;20017;-77
2023/07/12 03:51:31;;;;;;;15.25;5.82;;;;;;;16.43;100.00;100914.28;6188866;23;20013;-77
2023/07/12 03:53:58;;;;;;;8.75;5.40;;;;;;;16.44;100.00;100915.78;6189456;23;20024;-77
2023/07/12 03:56:24;;;;;;;10.85;6.18;;;;;;;16.41;100.00;100916.72;6189593;23;20100;-77
2023/07/12 03:58:51;;;;;;;10.18;5.90;;;;;;;16.39;100.00;100913.78;6162555;23;20479;-77
2023/07/12 04:01:18;;;;;;;12.73;6.60;;;;;;;16.38;100.00;100925.75;6189695;23;20017;-77
2023/07/12 04:03:46;;;;;;;13.20;6.82;;;;;;;16.34;100.00;100924.00;6189379;23;20013;-78
2023/07/12 04:06:13;;;;;;;11.45;6.85;;;;;;;16.32;100.00;100925.69;6188912;23;20085;-77
2023/07/12 04:08:40;;;;;;;8.77;7.32;;;;;;;16.30;100.00;100928.13;6162711;23;20065;-77
2023/07/12 04:11:07;;;;;;;10.85;7.22;;;;;;;16.29;100.00;100918.59;6163482;23;20571;-77
2023/07/12 04:13:34;;;;;;;12.75;7.25;;;;;;;16.28;100.00;100917.84;6189472;23;20018;-77
2023/07/12 04:16:02;;;;;;;8.15;6.50;;;;;;;16.27;100.00;100918.31;6162722;23;20072;-78
2023/07/12 04:18:29;;;;;;;12.52;6.70;;;;;;;16.29;100.00;100921.28;6138530;23;20026;-78
2023/07/12 04:21:03;;;;;;;11.88;6.18;;;;;;;16.26;100.00;100917.59;6188859;23;20020;-77
2023/07/12 04:23:29;;;;;;;11.50;6.13;;;;;;;16.25;100.00;100921.47;6163091;23;20105;-78
2023/07/12 04:26:00;;;;;;;16.77;6.15;;;;;;;16.26;100.00;100914.91;6189452;23;20592;-77
2023/07/12 04:28:27;;;;;;;14.77;5.88;;;;;;;16.23;100.00;100917.78;6189037;23;20089;-76
2023/07/12 04:30:54;;;;;;;10.30;5.57;;;;;;;16.22;100.00;100924.38;6189296;23;20060;-77
2023/07/12 04:33:21;;;;;;;14.25;5.60;;;;;;;16.19;100.00;100926.06;6189687;23;20045;-78
2023/07/12 04:35:48;;;;;;;11.95;6.13;;;;;;;16.21;100.00;100930.94;6189269;23;20028;-76
2023/07/12 04:38:15;;;;;;;10.35;5.57;;;;;;;16.22;100.00;100929.75;6163323;23;20021;-76
2023/07/12 04:40:41;;;;;;;10.68;5.95;;;;;;;16.23;100.00;100941.97;6189246;23;20044;-77
2023/07/12 04:43:08;;;;;;;9.77;5.53;;;;;;;16.24;100.00;100940.75;6189891;23;20426;-77
2023/07/12 04:45:35;;;;;;;8.20;5.78;;;;;;;16.24;100.00;100944.19;6189439;23;20488;-77
2023/07/12 04:48:01;;;;;;;8.88;5.50;;;;;;;16.23;100.00;100941.97;6188671;23;20017;-77
2023/07/12 04:50:29;;;;;;;12.65;6.30;;;;;;;16.23;100.00;100945.38;6162894;23;20056;-77
2023/07/12 04:52:55;;;;;;;8.60;5.78;;;;;;;16.22;100.00;100946.59;6189270;23;20017;-77
2023/07/12 04:55:26;;;;;;;10.35;5.97;;;;;;;16.27;100.00;100943.22;6189089;23;20020;-77
2023/07/12 04:57:54;;;;;;;9.77;6.25;;;;;;;16.28;100.00;100949.34;6189524;23;20466;-77
2023/07/12 05:00:24;;;;;;;10.05;6.13;;;;;;;16.30;100.00;100954.97;6189052;23;20485;-77
2023/07/12 05:02:52;;;;;;;11.75;6.30;;;;;;;16.28;100.00;100952.78;6188612;23;20073;-77
2023/07/12 05:05:20;;;;;;;8.63;5.95;;;;;;;16.26;100.00;100951.75;6189096;23;20336;-78
2023/07/12 05:07:48;;;;;;;10.13;6.25;;;;;;;16.26;100.00;100965.19;6162492;23;20059;-76
2023/07/12 05:10:15;;;;;;;11.82;6.50;;;;;;;16.22;100.00;100961.97;6189562;23;20097;-77
2023/07/12 05:12:42;;;;;;;7.55;6.57;;;;;;;16.19;100.00;100963.66;6161905;23;20456;-77
2023/07/12 05:15:10;;;;;;;10.43;7.13;;;;;;;16.19;100.00;100962.91;6189405;23;20440;-77
2023/07/12 05:17:39;;;;;;;10.15;6.35;;;;;;;16.24;100.00;100964.94;6161623;23;20033;-78
2023/07/12 05:20:08;;;;;;;14.60;7.45;;;;;;;16.27;100.00;100962.03;6189345;23;20392;-77
2023/07/12 05:22:34;;;;;;;13.18;7.45;;;;;;;16.27;100.00;100970.09;6189161;23;20018;-77
2023/07/12 05:25:01;;;;;;;12.10;7.13;;;;;;;16.30;100.00;100963.78;6162381;23;20041;-76
2023/07/12 05:27:27;;;;;;;12.55;7.18;;;;;;;16.27;100.00;100967.41;6132690;23;20026;-77
2023/07/12 05:29:54;;;;;;;11.77;7.40;;;;;;;16.32;100.00;100974.06;6159150;23;20025;-78
2023/07/12 05:32:21;;;;;;;13.20;7.45;;;;;;;16.32;100.00;100972.09;6157211;23;20396;-77
2023/07/12 05:34:47;;;;;;;13.02;7.65;;;;;;;16.34;100.00;100974.31;6159208;23;20018;-77
2023/07/12 05:37:14;;;;;;;9.45;7.05;;;;;;;16.41;100.00;100978.50;6159478;23;20086;-77
2023/07/12 05:39:40;;;;;;;11.25;7.50;;;;;;;16.45;100.00;100982.47;6158806;23;20049;-77
2023/07/12 05:42:08;;;;;;;12.57;7.22;;;;;;;16.52;100.00;100982.06;6159611;23;20024;-77
2023/07/12 05:44:35;;;;;;;13.18;7.65;;;;;;;16.63;100.00;100982.16;6158956;23;20024;-77
2023/07/12 05:47:01;;;;;;;10.80;7.20;;;;;;;16.67;100.00;100971.22;6158384;23;20437;-77
2023/07/12 05:49:28;;;;;;;10.48;6.88;;;;;;;16.66;100.00;100977.81;6157603;23;20020;-78
2023/07/12 05:51:55;;;;;;;9.50;7.18;;;;;;;16.75;100.00;100974.97;6157455;23;20432;-77
2023/07/12 05:54:22;;;;;;;11.23;7.10;;;;;;;17.08;100.00;100987.19;6132830;23;20520;-79
2023/07/12 05:56:48;;;;;;;12.73;7.22;;;;;;;17.63;100.00;100995.59;6158683;23;20487;-75
2023/07/12 05:59:15;;;;;;;9.85;6.80;;;;;;;17.59;100.00;100997.78;6158705;23;20037;-73
2023/07/12 06:01:42;;;;;;;8.85;6.60;;;;;;;17.60;99.66;100993.84;6159179;23;20463;-73
2023/07/12 06:04:10;;;;;;;10.98;6.70;;;;;;;17.45;99.82;100995.25;6159113;23;20025;-74
2023/07/12 06:06:38;;;;;;;14.05;6.97;;;;;;;17.40;100.00;101010.16;6158545;23;20029;-74
2023/07/12 06:09:05;;;;;;;9.32;5.82;;;;;;;17.42;100.00;101013.09;6157268;23;20014;-74
2023/07/12 06:11:32;;;;;;;14.48;6.53;;;;;;;17.63;99.22;101017.13;6158298;23;20046;-74
2023/07/12 06:13:59;;;;;;;6.78;5.47;;;;;;;17.54;97.95;100998.50;6158183;23;20018;-74
2023/07/12 06:16:26;;;;;;;10.00;6.15;;;;;;;17.42;98.18;101004.28;6159103;23;20026;-75
2023/07/12 06:18:53;;;;;;;10.48;6.13;;;;;;;17.37;97.36;101003.03;6158300;23;20022;-74
2023/07/12 06:21:20;;;;;;;9.60;6.15;;;;;;;17.53;98.92;101007.06;6159676;23;20022;-75
2023/07/12 06:23:48;;;;;;;9.20;6.00;;;;;;;18.02;98.05;101005.09;6159832;23;20025;-74
2023/07/12 06:26:14;;;;;;;10.07;5.65;;;;;;;18.31;95.06;101010.84;6160283;23;20022;-73
2023/07/12 06:28:41;;;;;;;12.20;6.47;;;;;;;18.25;93.19;101015.47;6187571;23;20435;-74
2023/07/12 06:31:08;;;;;;;10.43;5.93;;;;;;;18.19;92.65;101025.47;6189504;23;20419;-74
2023/07/12 06:33:35;;;;;;;17.48;5.93;;;;;;;18.06;94.18;101019.78;6189344;23;20009;-77
2023/07/12 06:36:02;;;;;;;11.40;5.80;;;;;;;17.95;93.96;101015.13;6163459;23;20028;-75
2023/07/12 06:38:28;;;;;;;11.48;5.80;;;;;;;17.88;94.79;101001.38;6189394;23;20068;-74
2023/07/12 06:40:55;;;;;;;12.02;5.88;;;;;;;17.93;94.78;101008.75;6189725;23;20365;-75
2023/07/12 06:43:23;;;;;;;7.30;5.57;;;;;;;18.04;94.90;101016.84;6189321;23;20097;-75
2023/07/12 06:45:50;;;;;;;16.48;6.15;;;;;;;18.02;94.56;101030.06;6189205;23;20022;-76
2023/07/12 06:48:16;;;;;;;11.43;5.75;;;;;;;18.13;95.04;101032.06;6189842;23;20013;-75
2023/07/12 06:50:43;;;;;;;7.40;4.82;;;;;;;18.00;93.84;101022.47;6189819;23;20018;-76
2023/07/12 06:53:10;;;;;;;10.35;5.15;;;;;;;17.97;94.39;101033.50;6162731;23;20045;-75
2023/07/12 06:55:42;;;;;;;9.23;5.20;;;;;;;17.97;94.15;101042.31;6189396;23;20029;-74
2023/07/12 06:58:09;;;;;;;8.60;4.85;;;;;;;17.87;94.73;101035.66;6189695;23;20014;-75
2023/07/12 07:00:42;;;;;;;10.63;5.53;;;;;;;17.93;93.80;101033.72;6188729;23;20025;-74
2023/07/12 07:03:09;;;;;;;9.38;5.10;;;;;;;17.88;93.83;101044.47;6189162;23;20473;-74
2023/07/12 07:05:39;;;;;;;13.30;5.13;;;;;;;17.92;95.22;101037.63;6163038;23;20057;-74
2023/07/12 07:08:07;;;;;;;10.98;4.70;;;;;;;18.03;95.34;101041.56;6162291;23;20356;-74
2023/07/12 07:10:33;;;;;;;13.13;5.05;;;;;;;18.06;94.81;101041.34;6189211;23;20018;-74
2023/07/12 07:13:00;;;;;;;10.45;5.13;;;;;;;18.02;95.16;101040.09;6188469;23;20014;-74
2023/07/12 07:15:27;;;;;;;10.65;4.35;;;;;;;18.09;94.79;101043.06;6188738;23;20024;-74
2023/07/12 07:17:54;;;;;;;12.57;4.78;;;;;;;18.24;94.92;101043.63;6162496;23;20422;-73
2023/07/12 07:20:22;;;;;;;9.77;5.00;;;;;;;18.42;94.75;101047.84;6162271;23;20064;-74
2023/07/12 07:22:48;;;;;;;9.70;4.50;;;;;;;18.54;93.50;101045.91;6190198;23;20023;-74
2023/07/12 07:25:15;;;;;;;5.38;4.25;;;;;;;18.64;92.96;101041.78;6190897;23;20017;-74
2023/07/12 07:27:47;;;;;;;10.70;4.65;;;;;;;18.82;93.50;101043.28;6189739;23;20530;-74
2023/07/12 07:30:14;;;;;;;13.35;5.55;;;;;;;18.91;92.34;101051.13;6190848;23;20014;-74
2023/07/12 07:32:40;;;;;;;11.70;4.60;;;;;;;18.76;91.53;101061.44;6164144;23;20436;-74
2023/07/12 07:35:08;;;;;;;8.45;4.20;;;;;;;18.67;92.16;101061.66;6190704;23;20526;-75
2023/07/12 07:37:35;;;;;;;13.82;4.68;;;;;;;18.63;92.62;101068.03;6190199;23;20017;-74
2023/07/12 07:40:03;;;;;;;14.43;4.25;;;;;;;18.62;92.08;101068.50;6190596;23;20393;-74
2023/07/12 07:42:30;;;;;;;10.85;4.50;;;;;;;18.62;91.67;101063.13;6163400;23;20032;-75
2023/07/12 07:44:57;;;;;;;7.63;4.20;;;;;;;18.69;92.46;101065.34;6163549;23;20135;-74
2023/07/12 07:47:23;;;;;;;7.65;4.18;;;;;;;18.71;92.15;101075.63;6190087;23;20077;-75
2023/07/12 07:49:50;;;;;;;13.93;4.95;;;;;;;18.72;92.97;101079.81;6190063;23;20032;-75
2023/07/12 07:52:16;;;;;;;8.32;3.47;;;;;;;18.76;91.19;101075.66;6188771;23;20014;-75
2023/07/12 07:54:43;;;;;;;12.80;4.55;;;;;;;18.89;91.11;101086.69;6188414;23;20021;-75
2023/07/12 07:57:10;;;;;;;6.50;3.78;;;;;;;19.07;90.71;101088.19;6188678;23;20104;-75
2023/07/12 07:59:36;;;;;;;11.55;4.97;;;;;;;19.59;90.70;101085.72;6188634;23;20049;-75
2023/07/12 08:02:03;;;;;;;10.52;3.53;;;;;;;20.05;86.63;101084.38;6188730;23;20018;-75
2023/07/12 08:04:31;;;;;;;13.00;4.07;;;;;;;20.15;85.58;101087.53;6188463;23;20028;-75
2023/07/12 08:06:58;;;;;;;12.02;3.58;;;;;;;20.44;84.14;101086.19;6163864;23;20018;-74
2023/07/12 08:09:24;;;;;;;7.35;3.85;;;;;;;20.79;83.05;101082.81;6190126;23;20080;-74
2023/07/12 08:11:51;;;;;;;9.63;3.38;;;;;;;20.89;80.73;101087.38;6189985;23;20420;-74
2023/07/12 08:14:20;;;;;;;11.98;3.65;;;;;;;20.92;79.44;101097.22;6164598;23;20017;-75
2023/07/12 08:16:48;;;;;;;7.38;3.38;;;;;;;21.06;80.37;101095.41;6190455;23;20017;-75
2023/07/12 08:19:15;;;;;;;9.63;3.92;;;;;;;21.23;79.00;101090.59;6190731;23;20018;-75
2023/07/12 08:21:45;;;;;;;7.40;3.55;;;;;;;21.42;78.65;101098.09;6190610;23;20069;-75
2023/07/12 08:24:11;;;;;;;10.25;3.38;;;;;;;21.51;75.62;101095.78;6190892;23;20017;-76
2023/07/12 08:26:38;;;;;;;8.15;3.05;;;;;;;21.91;75.89;101093.41;6162988;23;20022;-75
2023/07/12 08:29:11;;;;;;;9.02;3.20;;;;;;;21.96;73.87;101103.44;6190993;23;20020;-76
2023/07/12 08:31:38;;;;;;;6.55;2.80;;;;;;;22.06;73.27;101101.13;6190159;23;20403;-75
2023/07/12 08:34:04;;;;;;;11.25;3.53;;;;;;;22.07;74.68;101106.03;6190319;23;20024;-76
2023/07/12 08:36:31;;;;;;;7.00;3.15;;;;;;;22.22;72.97;101103.66;6163962;23;20084;-76
2023/07/12 08:38:58;;;;;;;7.80;3.55;;;;;;;22.47;72.28;101111.72;6163902;23;20024;-76
2023/07/12 08:41:26;;;;;;;6.55;2.95;;;;;;;22.73;71.18;101100.28;6189755;23;20018;-76
2023/07/12 08:43:53;;;;;;;6.90;2.75;;;;;;;22.62;69.71;101109.28;6190697;23;20017;-77
2023/07/12 08:46:30;;;;;;;8.45;2.78;;;;;;;22.16;71.37;101100.28;6190386;23;20077;-78
2023/07/12 08:48:59;;;;;;;5.97;3.08;;;;;;;21.88;71.15;101099.84;6190861;23;20017;-77
2023/07/12 08:51:32;;;;;;;8.48;3.35;;;;;;;22.33;71.90;101115.59;6190170;23;20451;-77
2023/07/12 08:53:58;;;;;;;6.93;2.80;;;;;;;22.78;68.67;101113.03;6190720;23;20018;-77
2023/07/12 08:56:25;;;;;;;5.95;2.92;;;;;;;23.09;68.06;101101.47;6189850;23;20021;-77
2023/07/12 08:58:54;;;;;;;6.30;2.47;;;;;;;23.32;65.82;101104.53;6190488;23;20474;-76
2023/07/12 09:01:42;;;;;;;8.93;2.67;;;;;;;23.11;65.98;101109.09;6190243;23;20014;-76
2023/07/12 09:04:31;;;;;;;7.68;3.22;;;;;;;22.68;66.85;101123.53;6190622;23;20017;-77
2023/07/12 09:07:01;;;;;;;9.73;3.05;;;;;;;22.61;66.24;101129.53;6139833;23;20061;-78
2023/07/12 09:09:32;;;;;;;7.65;2.80;;;;;;;22.53;66.87;101123.22;6190258;23;20392;-78
2023/07/12 09:12:01;;;;;;;;;;;;;;;22.79;69.51;101119.94;6190937;23;20030;-75
2023/07/12 09:14:27;;;;;;;8.27;2.92;;;;;;;22.54;66.78;101114.56;6189987;23;20011;-74
2023/07/12 09:16:57;;;;;;;5.22;2.53;;;;;;;22.49;67.12;101133.63;6190251;23;20443;-75
2023/07/12 09:19:30;;;;;;;7.57;2.70;;;;;;;22.25;66.78;101124.31;6163637;23;20014;-75
2023/07/12 09:21:59;;;;;;;12.30;2.92;;;;;;;22.08;66.98;101126.47;6190368;23;20016;-76
2023/07/12 09:24:31;;;;;;;9.77;3.10;;;;;;;21.93;68.61;101118.03;6189008;23;20024;-76
2023/07/12 09:27:12;;;;;;;8.75;3.08;;;;;;;21.94;67.89;101124.91;6190055;23;20041;-76
2023/07/12 09:29:39;;;;;;;;;;;;;;;21.92;69.00;101114.56;6190752;23;20013;-76
2023/07/12 09:32:17;;;;;;;6.70;3.13;;;;;;;21.85;68.19;101127.94;6190473;23;19987;-80
2023/07/12 09:34:47;;;;;;;10.60;3.20;;;;;;;21.61;67.60;101126.69;6139808;23;20033;-80
2023/07/12 09:37:17;;;;;;;6.75;2.53;;;;;;;21.66;67.79;101133.31;6190462;23;20024;-80
2023/07/12 09:39:53;;;;;;;5.72;2.45;;;;;;;21.58;67.92;101138.56;6190663;23;20013;-80
2023/07/12 09:42:20;;;;;;;10.57;2.97;;;;;;;21.51;69.31;101144.53;6163866;23;20018;-81
2023/07/12 09:44:47;;;;;;;6.88;3.28;;;;;;;21.56;69.08;101135.63;6164088;23;20452;-81
2023/07/12 09:47:51;;;;;;;7.88;2.70;;;;;;;21.67;69.39;101142.16;6189962;23;20017;-80
2023/07/12 09:50:26;;;;;;;7.80;2.47;;;;;;;22.16;65.15;101132.06;6189846;23;20037;-80
2023/07/12 09:52:55;;;;;;;4.63;2.22;;;;;;;21.84;64.81;101146.19;6188750;23;20014;-81
2023/07/12 09:55:38;;;;;;;4.13;2.47;;;;;;;21.57;66.01;101145.22;6189983;23;20094;-79
2023/07/12 09:58:16;;;;;;;7.80;2.30;;;;;;;21.21;67.23;101157.31;6190191;23;20447;-81
2023/07/12 10:01:21;;;;;;;7.53;2.40;;;;;;;21.00;68.05;101154.25;6190192;23;20467;-80
2023/07/12 10:03:55;;;;;;;6.13;2.47;;;;;;;20.87;68.54;101156.78;6164115;23;20014;-80
2023/07/12 10:06:40;;;;;;;9.45;2.55;;;;;;;20.95;69.81;101155.75;6163646;23;20467;-80
2023/07/12 10:09:22;;;;;;;6.72;2.60;;;;;;;21.68;68.17;101165.31;6163716;23;20017;-81
2023/07/12 10:12:03;;;;;;;5.75;2.53;;;;;;;22.43;67.09;101157.38;6164427;23;20017;-81
2023/07/12 10:14:37;;;;;;;5.63;2.37;;;;;;;23.00;65.57;101155.41;6164455;23;20022;-79
2023/07/12 10:17:05;;;;;;;7.43;2.83;;;;;;;23.00;62.11;101155.41;6164085;23;20032;-77
2023/07/12 10:19:36;;;;;;;6.45;2.10;;;;;;;22.57;63.77;101158.94;6189759;23;20054;-76
2023/07/12 10:22:16;;;;;;;4.97;2.00;;;;;;;22.09;63.40;101157.78;6163047;23;20083;-75
2023/07/12 10:24:48;;;;;;;4.35;2.03;;;;;;;21.88;65.09;101162.16;6163179;23;20388;-78
2023/07/12 10:27:21;;;;;;;5.20;2.45;;;;;;;21.74;63.39;101158.59;6189860;23;20300;-75
2023/07/12 10:29:53;;;;;;;2.95;2.00;;;;;;;22.05;64.68;101159.28;6190127;23;20359;-74
2023/07/12 10:32:25;;;;;;;6.70;2.60;;;;;;;22.74;62.92;101158.72;6189411;23;20483;-74
2023/07/12 10:35:27;;;;;;;6.68;2.25;;;;;;;23.49;61.73;101156.59;6189868;23;20436;-75
2023/07/12 10:37:59;;;;;;;4.28;1.90;;;;;;;23.50;60.10;101144.50;6189466;23;20028;-75
2023/07/12 10:40:37;;;;;;;6.30;2.67;;;;;;;23.00;60.49;101156.16;6189850;23;20119;-76
2023/07/12 10:43:12;;;;;;;6.10;2.10;;;;;;;22.55;62.07;101156.72;6190431;23;20100;-76
2023/07/12 10:45:39;;;;;;;4.53;2.35;;;;;;;22.23;62.41;101164.78;6189580;23;20014;-76
2023/07/12 10:48:08;;;;;;;4.13;2.25;;;;;;;22.19;61.99;101158.16;6190019;23;20411;-74
2023/07/12 10:50:45;;;;;;;11.30;2.33;;;;;;;22.07;63.19;101162.97;6187154;23;20018;-75
2023/07/12 10:53:22;;;;;;;4.30;2.00;;;;;;;22.03;64.65;101162.50;6163485;23;20017;-75
2023/07/12 10:56:17;;;;;;;4.53;1.90;;;;;;;22.08;63.77;101163.69;6189571;23;20049;-75
2023/07/12 10:58:56;;;;;;;9.13;2.15;;;;;;;22.83;64.33;101172.66;6191231;23;20470;-75
2023/07/12 11:01:49;;;;;;;5.18;2.45;;;;;;;23.31;60.69;101160.09;6190756;23;20017;-75
2023/07/12 11:04:25;;;;;;;6.57;2.20;;;;;;;22.99;61.26;101168.25;6191251;23;20013;-75
2023/07/12 11:07:07;;;;;;;4.70;2.28;;;;;;;22.54;62.37;101170.81;6190434;23;20025;-74
2023/07/12 11:09:45;;;;;;;5.68;2.42;;;;;;;22.28;64.42;101180.25;6190610;23;20196;-74
2023/07/12 11:12:25;;;;;;;4.32;2.05;;;;;;;21.99;63.60;101180.31;6191048;23;20084;-75
2023/07/12 11:14:53;;;;;;;4.28;2.10;;;;;;;21.91;63.05;101186.28;6164343;23;20024;-75
2023/07/12 11:17:26;;;;;;;9.73;2.10;;;;;;;22.71;58.82;101182.19;6190366;23;20018;-74
2023/07/12 11:20:08;;;;;;;3.90;2.00;;;;;;;23.31;59.40;101189.25;6190390;23;20028;-74
2023/07/12 11:22:51;;;;;;;2.60;1.88;;;;;;;23.70;58.10;101181.22;6190361;23;20451;-74
2023/07/12 11:25:32;;;;;;;7.35;1.80;;;;;;;23.92;58.39;101177.38;6191132;23;20013;-74
2023/07/12 11:28:03;;;;;;;7.63;2.15;;;;;;;23.97;54.90;101178.53;6158927;23;20458;-75
2023/07/12 11:30:36;;;;;;;3.22;1.88;;;;;;;23.80;54.92;101195.88;6160704;23;20024;-75